sensor_id;sensor_type;location;lat;lon;timestamp;pressure;altitude;pressure_sealevel;temperature;humidity
79639;BME280;69114;49.108;8.280;2024-01-11T00:01:59;101533.28;;;-5.45;97.11
79639;BME280;69114;49.108;8.280;2024-01-11T00:04:24;101542.78;;;-5.41;96.92
79639;BME280;69114;49.108;8.280;2024-01-11T00:06:50;101535.84;;;-5.52;97.41
79639;BME280;69114;49.108;8.280;2024-01-11T00:09:16;101538.94;;;-5.55;97.52
79639;BME280;69114;49.108;8.280;2024-01-11T00:11:41;101538.94;;;-5.55;97.90
79639;BME280;69114;49.108;8.280;2024-01-11T00:14:07;101543.16;;;-5.52;98.15
79639;BME280;69114;49.108;8.280;2024-01-11T00:16:32;101545.22;;;-5.54;98.08
79639;BME280;69114;49.108;8.280;2024-01-11T00:18:57;101540.63;;;-5.54;98.27
79639;BME280;69114;49.108;8.280;2024-01-11T00:21:23;101542.63;;;-5.48;97.55
79639;BME280;69114;49.108;8.280;2024-01-11T00:23:49;101538.75;;;-5.53;98.18
79639;BME280;69114;49.108;8.280;2024-01-11T00:26:15;101551.50;;;-5.54;98.12
79639;BME280;69114;49.108;8.280;2024-01-11T00:28:40;101543.16;;;-5.52;98.38
79639;BME280;69114;49.108;8.280;2024-01-11T00:31:05;101547.25;;;-5.56;98.60
79639;BME280;69114;49.108;8.280;2024-01-11T00:33:31;101538.13;;;-5.63;98.40
79639;BME280;69114;49.108;8.280;2024-01-11T00:35:57;101548.81;;;-5.62;99.24
79639;BME280;69114;49.108;8.280;2024-01-11T00:38:23;101550.50;;;-5.61;99.02
79639;BME280;69114;49.108;8.280;2024-01-11T00:40:48;101549.50;;;-5.60;98.97
79639;BME280;69114;49.108;8.280;2024-01-11T00:43:14;101554.53;;;-5.57;98.82
79639;BME280;69114;49.108;8.280;2024-01-11T00:45:39;101546.78;;;-5.60;98.97
79639;BME280;69114;49.108;8.280;2024-01-11T00:48:05;101550.50;;;-5.61;99.04
79639;BME280;69114;49.108;8.280;2024-01-11T00:50:30;101550.34;;;-5.59;99.66
79639;BME280;69114;49.108;8.280;2024-01-11T00:52:56;101545.25;;;-5.62;99.08
79639;BME280;69114;49.108;8.280;2024-01-11T00:55:21;101548.31;;;-5.66;98.94
79639;BME280;69114;49.108;8.280;2024-01-11T00:57:47;101550.34;;;-5.68;99.60
79639;BME280;69114;49.108;8.280;2024-01-11T01:00:12;101552.72;;;-5.64;99.19
79639;BME280;69114;49.108;8.280;2024-01-11T01:02:41;101553.06;;;-5.68;99.23
79639;BME280;69114;49.108;8.280;2024-01-11T01:05:06;101544.94;;;-5.68;99.41
79639;BME280;69114;49.108;8.280;2024-01-11T01:07:32;101545.91;;;-5.60;99.29
79639;BME280;69114;49.108;8.280;2024-01-11T01:09:57;101544.22;;;-5.61;99.07
79639;BME280;69114;49.108;8.280;2024-01-11T01:12:23;101546.94;;;-5.61;99.13
79639;BME280;69114;49.108;8.280;2024-01-11T01:14:53;101545.59;;;-5.66;99.19
79639;BME280;69114;49.108;8.280;2024-01-11T01:17:18;101543.25;;;-5.69;100.00
79639;BME280;69114;49.108;8.280;2024-01-11T01:19:44;101544.63;;;-5.73;100.00
79639;BME280;69114;49.108;8.280;2024-01-11T01:22:09;101542.88;;;-5.66;100.00
79639;BME280;69114;49.108;8.280;2024-01-11T01:24:35;101545.16;;;-5.77;100.00
79639;BME280;69114;49.108;8.280;2024-01-11T01:27:00;101547.97;;;-5.71;100.00
79639;BME280;69114;49.108;8.280;2024-01-11T01:29:26;101544.94;;;-5.68;100.00
79639;BME280;69114;49.108;8.280;2024-01-11T01:31:51;101550.03;;;-5.64;100.00
79639;BME280;69114;49.108;8.280;2024-01-11T01:34:17;101558.69;;;-5.69;100.00
79639;BME280;69114;49.108;8.280;2024-01-11T01:36:42;101563.63;;;-5.73;100.00
79639;BME280;69114;49.108;8.280;2024-01-11T01:39:07;101559.38;;;-5.75;100.00
79639;BME280;69114;49.108;8.280;2024-01-11T01:41:33;101556.13;;;-5.71;100.00
79639;BME280;69114;49.108;8.280;2024-01-11T01:43:58;101561.94;;;-5.74;100.00
79639;BME280;69114;49.108;8.280;2024-01-11T01:46:24;101576.84;;;-5.70;100.00
79639;BME280;69114;49.108;8.280;2024-01-11T01:48:54;101576.66;;;-5.68;100.00
79639;BME280;69114;49.108;8.280;2024-01-11T01:51:21;101579.19;;;-5.67;100.00
79639;BME280;69114;49.108;8.280;2024-01-11T01:53:48;101581.56;;;-5.72;100.00
79639;BME280;69114;49.108;8.280;2024-01-11T01:56:16;101577.38;;;-5.74;100.00
79639;BME280;69114;49.108;8.280;2024-01-11T01:58:42;101586.03;;;-5.79;100.00
79639;BME280;69114;49.108;8.280;2024-01-11T02:01:08;101586.03;;;-5.79;100.00
79639;BME280;69114;49.108;8.280;2024-01-11T02:03:35;101588.22;;;-5.74;100.00
79639;BME280;69114;49.108;8.280;2024-01-11T02:06:01;101588.38;;;-5.76;100.00
79639;BME280;69114;49.108;8.280;2024-01-11T02:08:27;101587.53;;;-5.84;100.00
79639;BME280;69114;49.108;8.280;2024-01-11T02:10:53;101594.19;;;-5.87;100.00
79639;BME280;69114;49.108;8.280;2024-01-11T02:13:19;101584.31;;;-5.80;100.00
79639;BME280;69114;49.108;8.280;2024-01-11T02:15:48;101587.41;;;-5.91;100.00
79639;BME280;69114;49.108;8.280;2024-01-11T02:18:13;101584.50;;;-5.89;100.00
79639;BME280;69114;49.108;8.280;2024-01-11T02:20:38;101587.63;;;-5.93;100.00
79639;BME280;69114;49.108;8.280;2024-01-11T02:23:06;101581.97;;;-5.91;100.00
79639;BME280;69114;49.108;8.280;2024-01-11T02:25:33;101586.38;;;-5.90;100.00
79639;BME280;69114;49.108;8.280;2024-01-11T02:27:58;101583.66;;;-5.90;100.00
79639;BME280;69114;49.108;8.280;2024-01-11T02:30:24;101590.50;;;-5.94;100.00
79639;BME280;69114;49.108;8.280;2024-01-11T02:32:50;101591.19;;;-5.92;100.00
79639;BME280;69114;49.108;8.280;2024-01-11T02:35:15;101581.50;;;-5.95;100.00
79639;BME280;69114;49.108;8.280;2024-01-11T02:37:41;101586.78;;;-5.93;100.00
79639;BME280;69114;49.108;8.280;2024-01-11T02:40:08;101581.34;;;-5.93;100.00
79639;BME280;69114;49.108;8.280;2024-01-11T02:42:34;101578.25;;;-5.90;100.00
79639;BME280;69114;49.108;8.280;2024-01-11T02:44:59;101578.66;;;-5.93;100.00
79639;BME280;69114;49.108;8.280;2024-01-11T02:47:25;101585.59;;;-5.99;100.00
79639;BME280;69114;49.108;8.280;2024-01-11T02:49:51;101578.47;;;-6.00;100.00
79639;BME280;69114;49.108;8.280;2024-01-11T02:52:16;101579.50;;;-6.01;100.00
79639;BME280;69114;49.108;8.280;2024-01-11T02:54:42;101576.97;;;-6.02;100.00
79639;BME280;69114;49.108;8.280;2024-01-11T02:57:07;101580.34;;;-6.08;100.00
79639;BME280;69114;49.108;8.280;2024-01-11T02:59:32;101566.44;;;-5.97;100.00
79639;BME280;69114;49.108;8.280;2024-01-11T03:01:58;101568.47;;;-5.99;100.00
79639;BME280;69114;49.108;8.280;2024-01-11T03:04:23;101569.50;;;-6.00;100.00
79639;BME280;69114;49.108;8.280;2024-01-11T03:06:48;101570.00;;;-5.97;100.00
79639;BME280;69114;49.108;8.280;2024-01-11T03:09:14;101561.03;;;-6.05;100.00
79639;BME280;69114;49.108;8.280;2024-01-11T03:11:39;101567.47;;;-6.06;100.00
79639;BME280;69114;49.108;8.280;2024-01-11T03:14:06;101561.22;;;-6.07;100.00
79639;BME280;69114;49.108;8.280;2024-01-11T03:16:31;101556.47;;;-6.13;100.00
79639;BME280;69114;49.108;8.280;2024-01-11T03:18:56;101558.19;;;-6.12;100.00
79639;BME280;69114;49.108;8.280;2024-01-11T03:21:22;101557.66;;;-6.07;100.00
79639;BME280;69114;49.108;8.280;2024-01-11T03:23:47;101565.78;;;-6.07;100.00
79639;BME280;69114;49.108;8.280;2024-01-11T03:26:14;101572.22;;;-6.08;100.00
79639;BME280;69114;49.108;8.280;2024-01-11T03:28:39;101563.75;;;-6.13;100.00
79639;BME280;69114;49.108;8.280;2024-01-11T03:31:05;101561.38;;;-6.08;100.00
79639;BME280;69114;49.108;8.280;2024-01-11T03:33:30;101568.84;;;-6.10;100.00
79639;BME280;69114;49.108;8.280;2024-01-11T03:35:55;101555.97;;;-6.16;100.00
79639;BME280;69114;49.108;8.280;2024-01-11T03:38:21;101570.84;;;-6.12;100.00
79639;BME280;69114;49.108;8.280;2024-01-11T03:40:46;101570.19;;;-6.14;100.00
79639;BME280;69114;49.108;8.280;2024-01-11T03:43:11;101574.63;;;-6.22;100.00
79639;BME280;69114;49.108;8.280;2024-01-11T03:45:36;101571.56;;;-6.27;100.00
79639;BME280;69114;49.108;8.280;2024-01-11T03:48:02;101573.09;;;-6.24;100.00
79639;BME280;69114;49.108;8.280;2024-01-11T03:50:27;101569.88;;;-6.28;100.00
79639;BME280;69114;49.108;8.280;2024-01-11T03:52:53;101570.91;;;-6.21;100.00
79639;BME280;69114;49.108;8.280;2024-01-11T03:55:18;101560.38;;;-6.32;100.00
79639;BME280;69114;49.108;8.280;2024-01-11T03:57:43;101559.53;;;-6.32;100.00
79639;BME280;69114;49.108;8.280;2024-01-11T04:00:09;101551.59;;;-6.26;100.00
79639;BME280;69114;49.108;8.280;2024-01-11T04:02:35;101565.81;;;-6.24;100.00
79639;BME280;69114;49.108;8.280;2024-01-11T04:05:00;101563.94;;;-6.23;100.00
79639;BME280;69114;49.108;8.280;2024-01-11T04:07:26;101558.69;;;-6.25;100.00
79639;BME280;69114;49.108;8.280;2024-01-11T04:09:51;101560.06;;;-6.21;100.00
79639;BME280;69114;49.108;8.280;2024-01-11T04:12:17;101563.09;;;-6.24;100.00
79639;BME280;69114;49.108;8.280;2024-01-11T04:14:42;101558.69;;;-6.25;100.00
79639;BME280;69114;49.108;8.280;2024-01-11T04:17:07;101567.50;;;-6.23;100.00
79639;BME280;69114;49.108;8.280;2024-01-11T04:19:33;101558.00;;;-6.19;100.00
79639;BME280;69114;49.108;8.280;2024-01-11T04:21:58;101561.06;;;-6.22;100.00
79639;BME280;69114;49.108;8.280;2024-01-11T04:24:24;101556.31;;;-6.20;100.00
79639;BME280;69114;49.108;8.280;2024-01-11T04:26:49;101561.75;;;-6.20;100.00
79639;BME280;69114;49.108;8.280;2024-01-11T04:29:14;101554.63;;;-6.21;100.00
79639;BME280;69114;49.108;8.280;2024-01-11T04:31:40;101549.00;;;-6.11;100.00
79639;BME280;69114;49.108;8.280;2024-01-11T04:34:05;101556.63;;;-6.14;100.00
79639;BME280;69114;49.108;8.280;2024-01-11T04:36:30;101545.59;;;-6.13;100.00
79639;BME280;69114;49.108;8.280;2024-01-11T04:38:56;101555.28;;;-6.10;100.00
79639;BME280;69114;49.108;8.280;2024-01-11T04:41:21;101553.28;;;-6.16;100.00
79639;BME280;69114;49.108;8.280;2024-01-11T04:43:47;101558.69;;;-6.25;100.00
79639;BME280;69114;49.108;8.280;2024-01-11T04:46:20;101559.53;;;-6.32;100.00
79639;BME280;69114;49.108;8.280;2024-01-11T04:48:46;101560.06;;;-6.37;100.00
79639;BME280;69114;49.108;8.280;2024-01-11T04:51:13;101569.53;;;-6.41;100.00
79639;BME280;69114;49.108;8.280;2024-01-11T04:53:42;101569.53;;;-6.41;100.00
79639;BME280;69114;49.108;8.280;2024-01-11T04:56:09;101568.88;;;-6.43;100.00
79639;BME280;69114;49.108;8.280;2024-01-11T04:58:35;101576.34;;;-6.45;100.00
79639;BME280;69114;49.108;8.280;2024-01-11T05:01:03;101571.25;;;-6.48;100.00
79639;BME280;69114;49.108;8.280;2024-01-11T05:03:28;101577.72;;;-6.49;100.00
79639;BME280;69114;49.108;8.280;2024-01-11T05:05:54;101578.03;;;-6.52;100.00
79639;BME280;69114;49.108;8.280;2024-01-11T05:08:20;101587.19;;;-6.53;100.00
79639;BME280;69114;49.108;8.280;2024-01-11T05:10:45;101589.56;;;-6.50;100.00
79639;BME280;69114;49.108;8.280;2024-01-11T05:13:10;101586.50;;;-6.47;100.00
79639;BME280;69114;49.108;8.280;2024-01-11T05:15:36;101585.16;;;-6.51;100.00
79639;BME280;69114;49.108;8.280;2024-01-11T05:18:01;101582.63;;;-6.53;100.00
79639;BME280;69114;49.108;8.280;2024-01-11T05:20:26;101579.72;;;-6.51;100.00
79639;BME280;69114;49.108;8.280;2024-01-11T05:22:52;101583.63;;;-6.54;100.00
79639;BME280;69114;49.108;8.280;2024-01-11T05:25:17;101582.47;;;-6.59;100.00
79639;BME280;69114;49.108;8.280;2024-01-11T05:27:42;101581.25;;;-6.57;100.00
79639;BME280;69114;49.108;8.280;2024-01-11T05:30:08;101589.38;;;-6.57;100.00
79639;BME280;69114;49.108;8.280;2024-01-11T05:32:34;101596.66;;;-6.57;100.00
79639;BME280;69114;49.108;8.280;2024-01-11T05:34:59;101598.03;;;-6.53;100.00
79639;BME280;69114;49.108;8.280;2024-01-11T05:37:24;101594.31;;;-6.52;100.00
79639;BME280;69114;49.108;8.280;2024-01-11T05:39:50;101596.81;;;-6.51;100.00
79639;BME280;69114;49.108;8.280;2024-01-11T05:42:15;101588.03;;;-6.53;100.00
79639;BME280;69114;49.108;8.280;2024-01-11T05:44:40;101601.41;;;-6.51;100.00
79639;BME280;69114;49.108;8.280;2024-01-11T05:47:06;101600.41;;;-6.50;100.00
79639;BME280;69114;49.108;8.280;2024-01-11T05:49:31;101596.50;;;-6.56;100.00
79639;BME280;69114;49.108;8.280;2024-01-11T05:51:56;101596.84;;;-6.59;100.00
79639;BME280;69114;49.108;8.280;2024-01-11T05:54:22;101604.47;;;-6.62;100.00
79639;BME280;69114;49.108;8.280;2024-01-11T05:56:47;101604.78;;;-6.65;100.00
79639;BME280;69114;49.108;8.280;2024-01-11T05:59:12;101612.56;;;-6.71;100.00
79639;BME280;69114;49.108;8.280;2024-01-11T06:01:41;101618.34;;;-6.65;100.00
79639;BME280;69114;49.108;8.280;2024-01-11T06:04:07;101619.03;;;-6.63;100.00
79639;BME280;69114;49.108;8.280;2024-01-11T06:06:33;101616.66;;;-6.58;100.00
79639;BME280;69114;49.108;8.280;2024-01-11T06:08:58;101611.38;;;-6.60;100.00
79639;BME280;69114;49.108;8.280;2024-01-11T06:11:23;101618.84;;;-6.62;100.00
79639;BME280;69114;49.108;8.280;2024-01-11T06:13:48;101621.75;;;-6.63;100.00
79639;BME280;69114;49.108;8.280;2024-01-11T06:16:14;101623.09;;;-6.67;100.00
79639;BME280;69114;49.108;8.280;2024-01-11T06:18:39;101620.19;;;-6.66;100.00
79639;BME280;69114;49.108;8.280;2024-01-11T06:21:04;101617.34;;;-6.64;100.00
79639;BME280;69114;49.108;8.280;2024-01-11T06:23:30;101619.03;;;-6.63;100.00
79639;BME280;69114;49.108;8.280;2024-01-11T06:25:55;101624.78;;;-6.66;100.00
79639;BME280;69114;49.108;8.280;2024-01-11T06:28:21;101619.34;;;-6.66;100.00
79639;BME280;69114;49.108;8.280;2024-01-11T06:30:46;101613.94;;;-6.66;100.00
79639;BME280;69114;49.108;8.280;2024-01-11T06:33:12;101621.41;;;-6.68;100.00
79639;BME280;69114;49.108;8.280;2024-01-11T06:35:37;101618.00;;;-6.71;100.00
79639;BME280;69114;49.108;8.280;2024-01-11T06:38:02;101619.19;;;-6.73;100.00
79639;BME280;69114;49.108;8.280;2024-01-11T06:40:28;101620.88;;;-6.72;100.00
79639;BME280;69114;49.108;8.280;2024-01-11T06:42:53;101629.34;;;-6.75;100.00
79639;BME280;69114;49.108;8.280;2024-01-11T06:45:19;101628.16;;;-6.81;100.00
79639;BME280;69114;49.108;8.280;2024-01-11T06:47:44;101634.25;;;-6.79;100.00
79639;BME280;69114;49.108;8.280;2024-01-11T06:50:12;101630.69;;;-6.79;100.00
79639;BME280;69114;49.108;8.280;2024-01-11T06:52:37;101641.50;;;-6.79;100.00
79639;BME280;69114;49.108;8.280;2024-01-11T06:55:04;101638.47;;;-6.84;100.00
79639;BME280;69114;49.108;8.280;2024-01-11T06:57:29;101644.72;;;-6.84;100.00
79639;BME280;69114;49.108;8.280;2024-01-11T06:59:54;101649.13;;;-6.91;100.00
79639;BME280;69114;49.108;8.280;2024-01-11T07:02:20;101659.28;;;-6.85;100.00
79639;BME280;69114;49.108;8.280;2024-01-11T07:04:45;101667.09;;;-6.82;100.00
79639;BME280;69114;49.108;8.280;2024-01-11T07:07:10;101663.53;;;-6.82;100.00
79639;BME280;69114;49.108;8.280;2024-01-11T07:09:36;101672.84;;;-6.77;100.00
79639;BME280;69114;49.108;8.280;2024-01-11T07:12:01;101672.84;;;-6.77;100.00
79639;BME280;69114;49.108;8.280;2024-01-11T07:14:27;101671.16;;;-6.78;100.00
79639;BME280;69114;49.108;8.280;2024-01-11T07:16:52;101683.69;;;-6.77;100.00
79639;BME280;69114;49.108;8.280;2024-01-11T07:19:18;101694.34;;;-6.75;100.00
79639;BME280;69114;49.108;8.280;2024-01-11T07:21:43;101691.16;;;-6.79;100.00
79639;BME280;69114;49.108;8.280;2024-01-11T07:24:08;101690.13;;;-6.78;100.00
79639;BME280;69114;49.108;8.280;2024-01-11T07:26:34;101697.78;;;-6.73;100.00
79639;BME280;69114;49.108;8.280;2024-01-11T07:28:59;101688.78;;;-6.74;100.00
79639;BME280;69114;49.108;8.280;2024-01-11T07:31:25;101697.59;;;-6.72;100.00
79639;BME280;69114;49.108;8.280;2024-01-11T07:33:50;101699.81;;;-6.67;100.00
79639;BME280;69114;49.108;8.280;2024-01-11T07:36:16;101706.41;;;-6.61;100.00
79639;BME280;69114;49.108;8.280;2024-01-11T07:38:41;101703.03;;;-6.63;100.00
79639;BME280;69114;49.108;8.280;2024-01-11T07:41:07;101703.38;;;-6.58;100.00
79639;BME280;69114;49.108;8.280;2024-01-11T07:43:32;101698.50;;;-6.55;100.00
79639;BME280;69114;49.108;8.280;2024-01-11T07:46:01;101717.59;;;-6.56;100.00
79639;BME280;69114;49.108;8.280;2024-01-11T07:48:27;101725.09;;;-6.50;100.00
79639;BME280;69114;49.108;8.280;2024-01-11T07:50:52;101714.25;;;-6.50;100.00
79639;BME280;69114;49.108;8.280;2024-01-11T07:53:17;101724.41;;;-6.44;100.00
79639;BME280;69114;49.108;8.280;2024-01-11T07:55:43;101733.56;;;-6.45;100.00
79639;BME280;69114;49.108;8.280;2024-01-11T07:58:08;101736.13;;;-6.35;100.00
79639;BME280;69114;49.108;8.280;2024-01-11T08:00:34;101728.66;;;-6.33;100.00
79639;BME280;69114;49.108;8.280;2024-01-11T08:02:59;101724.59;;;-6.29;100.00
79639;BME280;69114;49.108;8.280;2024-01-11T08:05:25;101735.13;;;-6.26;100.00
79639;BME280;69114;49.108;8.280;2024-01-11T08:07:51;101734.78;;;-6.23;100.00
79639;BME280;69114;49.108;8.280;2024-01-11T08:10:17;101739.88;;;-6.20;100.00
79639;BME280;69114;49.108;8.280;2024-01-11T08:12:42;101739.72;;;-6.10;100.00
79639;BME280;69114;49.108;8.280;2024-01-11T08:15:08;101738.50;;;-6.08;100.00
79639;BME280;69114;49.108;8.280;2024-01-11T08:17:38;101738.19;;;-6.05;100.00
79639;BME280;69114;49.108;8.280;2024-01-11T08:20:04;101738.34;;;-5.98;100.00
79639;BME280;69114;49.108;8.280;2024-01-11T08:22:33;101734.13;;;-6.01;100.00
79639;BME280;69114;49.108;8.280;2024-01-11T08:25:01;101744.75;;;-5.91;100.00
79639;BME280;69114;49.108;8.280;2024-01-11T08:27:27;101738.31;;;-5.82;100.00
79639;BME280;69114;49.108;8.280;2024-01-11T08:29:52;101732.38;;;-5.69;100.00
79639;BME280;69114;49.108;8.280;2024-01-11T08:32:17;101736.28;;;-5.63;100.00
79639;BME280;69114;49.108;8.280;2024-01-11T08:34:43;101735.91;;;-5.60;100.00
79639;BME280;69114;49.108;8.280;2024-01-11T08:37:09;101729.13;;;-5.48;100.00
79639;BME280;69114;49.108;8.280;2024-01-11T08:39:34;101734.88;;;-5.43;100.00
79639;BME280;69114;49.108;8.280;2024-01-11T08:42:00;101725.38;;;-5.47;100.00
79639;BME280;69114;49.108;8.280;2024-01-11T08:44:25;101734.50;;;-5.32;100.00
79639;BME280;69114;49.108;8.280;2024-01-11T08:46:50;101736.69;;;-5.27;100.00
79639;BME280;69114;49.108;8.280;2024-01-11T08:49:15;101740.94;;;-5.25;100.00
79639;BME280;69114;49.108;8.280;2024-01-11T08:51:41;101744.31;;;-5.23;100.00
79639;BME280;69114;49.108;8.280;2024-01-11T08:54:06;101743.31;;;-5.22;100.00
79639;BME280;69114;49.108;8.280;2024-01-11T08:56:34;101740.22;;;-5.19;100.00
79639;BME280;69114;49.108;8.280;2024-01-11T08:58:59;101739.22;;;-5.18;100.00
79639;BME280;69114;49.108;8.280;2024-01-11T09:01:24;101739.91;;;-5.16;100.00
79639;BME280;69114;49.108;8.280;2024-01-11T09:03:50;101745.34;;;-5.24;100.00
79639;BME280;69114;49.108;8.280;2024-01-11T09:06:15;101741.91;;;-5.18;100.00
79639;BME280;69114;49.108;8.280;2024-01-11T09:08:40;101739.34;;;-5.03;100.00
79639;BME280;69114;49.108;8.280;2024-01-11T09:11:09;101755.44;;;-4.93;100.00
79639;BME280;69114;49.108;8.280;2024-01-11T09:13:36;101748.63;;;-4.89;100.00
79639;BME280;69114;49.108;8.280;2024-01-11T09:16:01;101744.00;;;-4.80;100.00
79639;BME280;69114;49.108;8.280;2024-01-11T09:18:26;101746.88;;;-4.74;100.00
79639;BME280;69114;49.108;8.280;2024-01-11T09:20:52;101738.66;;;-4.66;100.00
79639;BME280;69114;49.108;8.280;2024-01-11T09:23:17;101755.66;;;-4.64;100.00
79639;BME280;69114;49.108;8.280;2024-01-11T09:25:44;101744.41;;;-4.60;100.00
79639;BME280;69114;49.108;8.280;2024-01-11T09:28:09;101747.81;;;-4.58;100.00
79639;BME280;69114;49.108;8.280;2024-01-11T09:30:34;101757.47;;;-4.56;100.00
79639;BME280;69114;49.108;8.280;2024-01-11T09:33:00;101758.81;;;-4.52;100.00
79639;BME280;69114;49.108;8.280;2024-01-11T09:35:25;101762.22;;;-4.50;100.00
79639;BME280;69114;49.108;8.280;2024-01-11T09:37:51;101756.91;;;-4.43;100.00
79639;BME280;69114;49.108;8.280;2024-01-11T09:40:18;101757.88;;;-4.36;100.00
79639;BME280;69114;49.108;8.280;2024-01-11T09:42:43;101755.81;;;-4.34;100.00
79639;BME280;69114;49.108;8.280;2024-01-11T09:45:10;101755.28;;;-4.29;99.79
79639;BME280;69114;49.108;8.280;2024-01-11T09:47:38;101763.75;;;-4.24;98.63
79639;BME280;69114;49.108;8.280;2024-01-11T09:50:06;101766.97;;;-4.21;99.55
79639;BME280;69114;49.108;8.280;2024-01-11T09:52:32;101764.00;;;-4.11;99.52
79639;BME280;69114;49.108;8.280;2024-01-11T09:55:01;101760.94;;;-4.08;98.69
79639;BME280;69114;49.108;8.280;2024-01-11T09:57:31;101765.16;;;-4.05;98.70
79639;BME280;69114;49.108;8.280;2024-01-11T10:00:03;101757.78;;;-3.97;98.23
79639;BME280;69114;49.108;8.280;2024-01-11T10:02:29;101760.31;;;-3.95;98.90
79639;BME280;69114;49.108;8.280;2024-01-11T10:04:55;101759.22;;;-3.86;99.15
79639;BME280;69114;49.108;8.280;2024-01-11T10:07:24;101744.31;;;-3.75;99.00
79639;BME280;69114;49.108;8.280;2024-01-11T10:09:52;101750.25;;;-3.72;97.77
79639;BME280;69114;49.108;8.280;2024-01-11T10:12:18;101750.38;;;-3.65;97.56
79639;BME280;69114;49.108;8.280;2024-01-11T10:14:46;101737.06;;;-3.60;97.05
79639;BME280;69114;49.108;8.280;2024-01-11T10:17:11;101746.16;;;-3.53;97.34
79639;BME280;69114;49.108;8.280;2024-01-11T10:19:36;101736.78;;;-3.50;97.08
79639;BME280;69114;49.108;8.280;2024-01-11T10:22:02;101747.00;;;-3.52;97.47
79639;BME280;69114;49.108;8.280;2024-01-11T10:24:28;101742.41;;;-3.37;96.56
79639;BME280;69114;49.108;8.280;2024-01-11T10:26:57;101739.13;;;-3.32;96.72
79639;BME280;69114;49.108;8.280;2024-01-11T10:29:27;101739.06;;;-3.24;96.36
79639;BME280;69114;49.108;8.280;2024-01-11T10:31:53;101737.09;;;-3.16;96.25
79639;BME280;69114;49.108;8.280;2024-01-11T10:34:18;101749.97;;;-3.10;95.55
79639;BME280;69114;49.108;8.280;2024-01-11T10:36:43;101740.38;;;-3.05;95.32
79639;BME280;69114;49.108;8.280;2024-01-11T10:39:09;101743.88;;;-2.97;93.48
79639;BME280;69114;49.108;8.280;2024-01-11T10:41:44;101747.91;;;-2.93;93.92
79639;BME280;69114;49.108;8.280;2024-01-11T10:44:18;101754.47;;;-2.87;93.80
79639;BME280;69114;49.108;8.280;2024-01-11T10:46:45;101761.06;;;-2.81;93.37
79639;BME280;69114;49.108;8.280;2024-01-11T10:49:11;101757.66;;;-2.69;93.29
79639;BME280;69114;49.108;8.280;2024-01-11T10:51:41;101750.97;;;-2.66;91.84
79639;BME280;69114;49.108;8.280;2024-01-11T10:54:08;101745.06;;;-2.70;92.13
79639;BME280;69114;49.108;8.280;2024-01-11T10:56:34;101736.75;;;-2.62;91.65
79639;BME280;69114;49.108;8.280;2024-01-11T10:59:00;101734.41;;;-2.50;91.73
79639;BME280;69114;49.108;8.280;2024-01-11T11:01:27;101735.50;;;-2.44;91.35
79639;BME280;69114;49.108;8.280;2024-01-11T11:03:56;101731.25;;;-2.32;90.25
79639;BME280;69114;49.108;8.280;2024-01-11T11:06:23;101728.91;;;-2.35;90.43
79639;BME280;69114;49.108;8.280;2024-01-11T11:08:50;101720.34;;;-2.32;90.91
79639;BME280;69114;49.108;8.280;2024-01-11T11:11:17;101722.75;;;-2.22;89.79
79639;BME280;69114;49.108;8.280;2024-01-11T11:13:47;101725.91;;;-2.19;88.30
79639;BME280;69114;49.108;8.280;2024-01-11T11:16:15;101726.25;;;-2.07;88.39
79639;BME280;69114;49.108;8.280;2024-01-11T11:18:40;101722.00;;;-2.10;88.51
79639;BME280;69114;49.108;8.280;2024-01-11T11:21:12;101724.38;;;-2.07;88.24
79639;BME280;69114;49.108;8.280;2024-01-11T11:23:37;101724.16;;;-2.05;88.00
79639;BME280;69114;49.108;8.280;2024-01-11T11:26:06;101724.38;;;-2.07;87.84
79639;BME280;69114;49.108;8.280;2024-01-11T11:28:33;101728.53;;;-2.11;87.94
79639;BME280;69114;49.108;8.280;2024-01-11T11:31:00;101726.97;;;-1.98;88.07
79639;BME280;69114;49.108;8.280;2024-01-11T11:33:28;101719.50;;;-1.90;87.19
79639;BME280;69114;49.108;8.280;2024-01-11T11:35:57;101703.53;;;-1.86;88.00
79639;BME280;69114;49.108;8.280;2024-01-11T11:38:25;101701.53;;;-1.77;87.34
79639;BME280;69114;49.108;8.280;2024-01-11T11:40:52;101698.88;;;-1.71;87.26
79639;BME280;69114;49.108;8.280;2024-01-11T11:43:18;101690.72;;;-1.64;85.76
79639;BME280;69114;49.108;8.280;2024-01-11T11:45:48;101697.84;;;-1.63;86.35
79639;BME280;69114;49.108;8.280;2024-01-11T11:53:35;101687.78;;;-1.63;85.67
79639;BME280;69114;49.108;8.280;2024-01-11T11:56:04;101682.44;;;-1.43;84.67
79639;BME280;69114;49.108;8.280;2024-01-11T11:58:30;101672.38;;;-1.42;85.01
79639;BME280;69114;49.108;8.280;2024-01-11T12:00:57;101664.81;;;-1.40;84.88
79639;BME280;69114;49.108;8.280;2024-01-11T12:03:29;101680.03;;;-1.24;84.64
79639;BME280;69114;49.108;8.280;2024-01-11T12:05:55;101686.34;;;-1.24;85.15
79639;BME280;69114;49.108;8.280;2024-01-11T12:08:21;101683.97;;;-0.99;82.94
79639;BME280;69114;49.108;8.280;2024-01-11T12:10:48;101661.66;;;-0.96;82.17
79639;BME280;69114;49.108;8.280;2024-01-11T12:13:14;101670.56;;;-0.87;81.46
79639;BME280;69114;49.108;8.280;2024-01-11T12:15:40;101668.16;;;-0.49;80.18
79639;BME280;69114;49.108;8.280;2024-01-11T12:18:05;101661.44;;;0.66;76.39
79639;BME280;69114;49.108;8.280;2024-01-11T12:20:32;101653.59;;;1.73;71.59
79639;BME280;69114;49.108;8.280;2024-01-11T12:22:58;101654.47;;;1.98;68.95
79639;BME280;69114;49.108;8.280;2024-01-11T12:25:23;101644.88;;;2.58;66.36
79639;BME280;69114;49.108;8.280;2024-01-11T12:27:49;101643.41;;;3.28;63.02
79639;BME280;69114;49.108;8.280;2024-01-11T12:30:16;101648.63;;;2.81;63.30
79639;BME280;69114;49.108;8.280;2024-01-11T12:32:43;101656.22;;;3.04;64.77
79639;BME280;69114;49.108;8.280;2024-01-11T12:35:08;101653.47;;;3.95;61.46
79639;BME280;69114;49.108;8.280;2024-01-11T12:37:34;101647.13;;;3.52;62.18
79639;BME280;69114;49.108;8.280;2024-01-11T12:39:59;101652.38;;;2.87;63.39
79639;BME280;69114;49.108;8.280;2024-01-11T12:42:28;101645.78;;;3.06;63.19